createdAt,value
2018-07-19T00:00:56.462Z,2.80
2018-07-19T00:03:25.842Z,2.80
2018-07-19T00:05:55.233Z,2.97
2018-07-19T00:08:24.590Z,3.03
2018-07-19T00:10:53.990Z,2.67
2018-07-19T00:13:23.720Z,3.03
2018-07-19T00:15:53.096Z,2.97
2018-07-19T00:18:25.733Z,2.70
2018-07-19T00:20:56.836Z,2.70
2018-07-19T00:23:26.861Z,2.70
2018-07-19T00:25:57.169Z,2.70
2018-07-19T00:28:26.523Z,2.62
2018-07-19T00:30:55.876Z,2.80
2018-07-19T00:33:25.255Z,2.60
2018-07-19T00:35:54.363Z,2.53
2018-07-19T00:38:23.752Z,3.00
2018-07-19T00:40:52.860Z,2.70
2018-07-19T00:43:22.243Z,2.80
2018-07-19T00:45:51.626Z,3.02
2018-07-19T00:48:21.004Z,2.47
2018-07-19T00:50:50.418Z,2.90
2018-07-19T00:53:19.785Z,3.77
2018-07-19T00:55:49.189Z,3.37
2018-07-19T00:58:18.567Z,2.80
2018-07-19T01:00:47.963Z,2.75
2018-07-19T01:03:17.165Z,2.73
2018-07-19T01:05:46.588Z,2.67
2018-07-19T01:08:15.963Z,3.05
2018-07-19T01:10:45.083Z,2.80
2018-07-19T01:13:14.484Z,3.60
2018-07-19T01:15:43.864Z,3.37
2018-07-19T01:18:12.983Z,3.10
2018-07-19T01:20:42.374Z,2.80
2018-07-19T01:23:11.738Z,3.20
2018-07-19T01:25:41.121Z,2.67
2018-07-19T01:28:10.473Z,2.70
2018-07-19T01:30:39.849Z,3.00
2018-07-19T01:33:09.223Z,2.93
2018-07-19T01:35:38.608Z,3.30
2018-07-19T01:38:08.747Z,2.85
2018-07-19T01:40:38.139Z,3.10
2018-07-19T01:43:07.512Z,2.63
2018-07-19T01:45:36.891Z,2.73
2018-07-19T01:48:06.420Z,3.10
2018-07-19T01:50:35.788Z,2.47
2018-07-19T01:53:04.921Z,2.73
2018-07-19T01:55:34.308Z,3.00
2018-07-19T01:58:03.704Z,2.90
2018-07-19T02:00:33.082Z,2.70
2018-07-19T02:03:02.448Z,2.77
2018-07-19T02:05:31.804Z,4.00
2018-07-19T02:08:00.908Z,2.93
2018-07-19T02:10:30.287Z,3.40
2018-07-19T02:12:59.406Z,3.67
2018-07-19T02:15:28.784Z,3.93
2018-07-19T02:17:58.161Z,3.30
2018-07-19T02:20:27.549Z,3.40
2018-07-19T02:22:56.949Z,3.83
2018-07-19T02:25:26.320Z,3.40
2018-07-19T02:27:55.718Z,3.72
2018-07-19T02:30:25.080Z,4.03
2018-07-19T02:32:54.422Z,3.50
2018-07-19T02:35:23.760Z,3.47
2018-07-19T02:37:53.100Z,3.27
2018-07-19T02:40:22.210Z,3.60
2018-07-19T02:42:51.589Z,3.47
2018-07-19T02:45:20.904Z,3.60
2018-07-19T02:47:50.276Z,3.43
2018-07-19T02:50:19.628Z,3.50
2018-07-19T02:52:49.056Z,3.50
2018-07-19T02:55:18.449Z,3.30
2018-07-19T02:57:47.854Z,3.40
2018-07-19T03:00:17.270Z,3.65
2018-07-19T03:02:46.660Z,3.17
2018-07-19T03:05:16.093Z,3.43
2018-07-19T03:07:45.506Z,3.60
2018-07-19T03:10:14.888Z,3.20
2018-07-19T03:12:44.296Z,3.67
2018-07-19T03:15:13.714Z,3.77
2018-07-19T03:17:43.119Z,3.50
2018-07-19T03:20:12.532Z,3.50
2018-07-19T03:22:41.663Z,4.17
2018-07-19T03:25:11.068Z,3.83
2018-07-19T03:27:40.472Z,3.40
2018-07-19T03:30:09.870Z,4.40
2018-07-19T03:32:39.263Z,3.40
2018-07-19T03:35:08.658Z,3.90
2018-07-19T03:37:38.067Z,3.40
2018-07-19T03:40:07.488Z,3.63
2018-07-19T03:42:36.877Z,3.57
2018-07-19T03:45:06.300Z,3.97
2018-07-19T03:47:35.697Z,3.75
2018-07-19T03:50:05.365Z,3.37
2018-07-19T03:52:34.539Z,3.40
2018-07-19T03:55:03.934Z,4.10
2018-07-19T03:57:33.317Z,4.63
2018-07-19T04:00:02.691Z,3.77
2018-07-19T04:02:33.097Z,3.43
2018-07-19T04:05:02.501Z,3.90
2018-07-19T04:07:31.873Z,4.22
2018-07-19T04:10:01.240Z,3.83
2018-07-19T04:12:30.616Z,4.10
2018-07-19T04:14:59.980Z,3.90
2018-07-19T04:17:29.357Z,3.77
2018-07-19T04:19:58.733Z,4.20
2018-07-19T04:22:28.102Z,3.83
2018-07-19T04:24:57.491Z,3.97
2018-07-19T04:27:26.856Z,4.00
2018-07-19T04:29:56.231Z,4.10
2018-07-19T04:32:25.665Z,4.08
2018-07-19T04:34:54.735Z,4.33
2018-07-19T04:37:24.108Z,4.20
2018-07-19T04:39:53.496Z,3.93
2018-07-19T04:42:22.628Z,4.10
2018-07-19T04:44:52.014Z,4.50
2018-07-19T04:47:21.384Z,6.27
2018-07-19T04:49:50.763Z,4.83
2018-07-19T04:52:20.127Z,5.00
2018-07-19T04:54:49.545Z,4.90
2018-07-19T04:57:18.941Z,5.10
2018-07-19T04:59:48.365Z,5.70
2018-07-19T05:02:17.738Z,5.30
2018-07-19T05:04:47.112Z,5.77
2018-07-19T05:07:16.228Z,5.20
2018-07-19T05:09:46.174Z,5.40
2018-07-19T05:12:15.540Z,4.65
2018-07-19T05:14:45.147Z,6.30
2018-07-19T05:17:14.586Z,6.43
2018-07-19T05:19:43.961Z,5.53
2018-07-19T05:22:13.330Z,6.10
2018-07-19T05:24:42.459Z,6.33
2018-07-19T05:27:11.833Z,6.47
2018-07-19T05:29:40.963Z,6.70
2018-07-19T05:32:10.352Z,6.33
2018-07-19T05:34:39.757Z,5.87
2018-07-19T05:37:09.132Z,6.10
2018-07-19T05:39:38.528Z,5.90
2018-07-19T05:42:09.052Z,5.58
2018-07-19T05:44:38.416Z,5.47
2018-07-19T05:47:07.804Z,6.08
2018-07-19T05:49:37.208Z,5.80
2018-07-19T05:52:06.603Z,6.40
2018-07-19T05:54:36.019Z,5.80
2018-07-19T05:57:05.509Z,5.60
2018-07-19T05:59:34.891Z,5.53
2018-07-19T06:02:04.301Z,5.53
2018-07-19T06:04:33.678Z,4.73
2018-07-19T06:07:03.099Z,4.77
2018-07-19T06:09:32.516Z,4.73
2018-07-19T06:12:01.600Z,4.13
2018-07-19T06:14:30.994Z,4.63
2018-07-19T06:17:00.398Z,3.97
2018-07-19T06:19:30.023Z,4.10
2018-07-19T06:21:59.419Z,3.83
2018-07-19T06:24:28.795Z,3.30
2018-07-19T06:26:57.951Z,3.10
2018-07-19T06:29:27.358Z,3.10
2018-07-19T06:31:56.764Z,3.33
2018-07-19T06:34:26.140Z,3.10
2018-07-19T06:36:55.643Z,2.97
2018-07-19T06:39:25.102Z,2.97
2018-07-19T06:41:54.484Z,2.70
2018-07-19T06:44:23.885Z,3.00
2018-07-19T06:46:53.293Z,3.07
2018-07-19T06:49:22.739Z,2.90
2018-07-19T06:51:52.078Z,2.97
2018-07-19T06:54:21.472Z,3.02
2018-07-19T06:56:50.857Z,2.33
2018-07-19T06:59:20.193Z,2.20
2018-07-19T07:01:49.538Z,2.70
2018-07-19T07:04:18.908Z,2.20
2018-07-19T07:06:48.248Z,2.40
2018-07-19T07:09:17.607Z,2.27
2018-07-19T07:11:46.965Z,2.40
2018-07-19T07:14:16.299Z,2.37
2018-07-19T07:16:45.639Z,2.20
2018-07-19T07:19:14.977Z,2.20
2018-07-19T07:21:44.320Z,2.20
2018-07-19T07:24:13.420Z,2.50
2018-07-19T07:26:42.520Z,2.00
2018-07-19T07:29:11.612Z,1.90
2018-07-19T07:31:40.711Z,2.13
2018-07-19T07:34:09.804Z,2.20
2018-07-19T07:36:38.899Z,2.30
2018-07-19T07:39:09.259Z,2.00
2018-07-19T07:41:38.638Z,2.20
2018-07-19T07:44:07.996Z,2.47
2018-07-19T07:49:00.204Z,2.00
2018-07-19T07:51:29.551Z,1.70
2018-07-19T07:53:59.118Z,2.70
2018-07-19T07:56:28.452Z,2.13
2018-07-19T07:58:57.820Z,1.83
2018-07-19T08:01:27.240Z,2.10
2018-07-19T08:03:56.599Z,2.07
2018-07-19T08:06:25.961Z,2.03
2018-07-19T08:08:55.306Z,2.20
2018-07-19T08:11:24.386Z,2.27
2018-07-19T08:13:53.494Z,2.10
2018-07-19T08:16:22.842Z,2.03
2018-07-19T08:18:52.196Z,2.12
2018-07-19T08:21:24.538Z,2.20
2018-07-19T08:23:53.893Z,2.10
2018-07-19T08:26:23.252Z,2.00
2018-07-19T08:28:52.600Z,2.37
2018-07-19T08:31:21.933Z,1.90
2018-07-19T08:33:51.263Z,2.17
2018-07-19T08:36:20.612Z,2.17
2018-07-19T08:38:50.032Z,2.50
2018-07-19T08:41:19.364Z,2.20
2018-07-19T08:43:48.466Z,2.30
2018-07-19T08:46:17.821Z,2.90
2018-07-19T08:48:47.219Z,1.90
2018-07-19T08:51:16.580Z,2.60
2018-07-19T08:53:45.918Z,2.53
2018-07-19T08:56:15.263Z,2.47
2018-07-19T08:58:44.386Z,2.20
2018-07-19T09:01:13.726Z,2.23
2018-07-19T09:03:43.115Z,2.27
2018-07-19T09:06:12.457Z,2.20
2018-07-19T09:08:41.626Z,2.63
2018-07-19T09:11:11.014Z,1.97
2018-07-19T09:13:40.364Z,2.10
2018-07-19T09:16:09.719Z,2.50
2018-07-19T09:18:39.078Z,2.67
2018-07-19T09:21:08.483Z,2.70
2018-07-19T09:23:37.831Z,2.33
2018-07-19T09:26:07.189Z,2.57
2018-07-19T09:28:36.536Z,2.67
2018-07-19T09:31:06.399Z,2.13
2018-07-19T09:33:36.007Z,2.50
2018-07-19T09:36:05.337Z,2.73
2018-07-19T09:38:34.804Z,2.43
2018-07-19T09:41:04.546Z,2.23
2018-07-19T09:43:33.886Z,2.27
2018-07-19T09:46:03.309Z,2.33
2018-07-19T09:48:32.950Z,2.40
2018-07-19T09:51:02.345Z,2.37
2018-07-19T09:53:31.705Z,2.60
2018-07-19T09:56:01.032Z,2.67
2018-07-19T09:58:30.425Z,2.20
2018-07-19T10:01:01.575Z,2.23
2018-07-19T10:03:30.901Z,2.27
2018-07-19T10:06:00.256Z,2.10
2018-07-19T10:08:29.669Z,2.40
2018-07-19T10:10:59.118Z,2.20
2018-07-19T10:13:28.773Z,2.60
2018-07-19T10:15:57.871Z,2.40
2018-07-19T10:18:26.961Z,2.33
2018-07-19T10:20:56.217Z,2.40
2018-07-19T10:23:25.936Z,2.23
2018-07-19T10:25:55.417Z,2.40
2018-07-19T10:28:24.752Z,2.87
2018-07-19T10:30:54.106Z,2.40
2018-07-19T10:33:23.453Z,2.43
2018-07-19T10:35:52.797Z,2.27
2018-07-19T10:38:22.125Z,2.07
2018-07-19T10:40:51.449Z,2.40
2018-07-19T10:43:20.858Z,2.37
2018-07-19T10:45:50.242Z,2.53
2018-07-19T10:48:19.611Z,2.60
2018-07-19T10:50:49.085Z,2.47
2018-07-19T10:53:18.624Z,2.67
2018-07-19T10:55:47.988Z,2.40
2018-07-19T10:58:17.362Z,2.23
2018-07-19T11:00:46.709Z,2.37
2018-07-19T11:03:16.056Z,2.43
2018-07-19T11:05:45.400Z,2.30
2018-07-19T11:08:14.483Z,2.17
2018-07-19T11:10:43.912Z,2.67
2018-07-19T11:13:13.244Z,2.50
2018-07-19T11:15:42.609Z,2.50
2018-07-19T11:18:12.082Z,2.03
2018-07-19T11:20:41.427Z,2.57
2018-07-19T11:23:10.792Z,2.73
2018-07-19T11:25:40.134Z,2.47
2018-07-19T11:28:09.511Z,2.20
2018-07-19T11:30:38.748Z,2.27
2018-07-19T11:33:08.069Z,2.07
2018-07-19T11:35:37.408Z,2.50
2018-07-19T11:38:06.757Z,2.20
2018-07-19T11:40:36.105Z,2.27
2018-07-19T11:43:05.287Z,2.30
2018-07-19T11:45:34.641Z,2.30
2018-07-19T11:48:03.985Z,2.67
2018-07-19T11:50:33.348Z,2.10
2018-07-19T11:53:02.683Z,2.30
2018-07-19T11:55:32.090Z,2.15
2018-07-19T11:58:01.505Z,2.33
2018-07-19T12:00:30.933Z,2.62
2018-07-19T12:03:00.384Z,2.30
2018-07-19T12:05:29.792Z,2.20
2018-07-19T12:07:59.200Z,2.12
2018-07-19T12:10:28.605Z,2.10
2018-07-19T12:12:58.008Z,2.30
2018-07-19T12:15:27.384Z,2.30
2018-07-19T12:17:56.789Z,2.20
2018-07-19T12:20:26.243Z,2.60
2018-07-19T12:22:55.401Z,2.27
2018-07-19T12:25:24.827Z,2.30
2018-07-19T12:27:54.273Z,2.02
2018-07-19T12:30:23.707Z,2.13
2018-07-19T12:32:53.098Z,2.35
2018-07-19T12:35:22.488Z,2.12
2018-07-19T12:37:51.913Z,2.30
2018-07-19T12:40:21.364Z,2.17
2018-07-19T12:42:50.827Z,2.40
2018-07-19T12:45:20.232Z,2.10
2018-07-19T12:47:49.651Z,2.02
2018-07-19T12:50:18.776Z,2.60
2018-07-19T12:52:48.199Z,2.58
2018-07-19T12:55:17.571Z,2.20
2018-07-19T12:57:46.975Z,2.00
2018-07-19T13:00:16.372Z,2.03
2018-07-19T13:02:45.667Z,2.40
2018-07-19T13:05:14.776Z,2.17
2018-07-19T13:07:44.118Z,2.08
2018-07-19T13:10:13.466Z,2.20
2018-07-19T13:12:42.799Z,2.30
2018-07-19T13:15:12.139Z,2.25
2018-07-19T13:17:41.474Z,1.90
2018-07-19T13:20:10.820Z,2.12
2018-07-19T13:22:40.164Z,2.10
2018-07-19T13:25:09.255Z,2.30
2018-07-19T13:27:38.597Z,2.50
2018-07-19T13:30:08.839Z,2.28
2018-07-19T13:32:39.141Z,2.50
2018-07-19T13:35:08.580Z,2.62
2018-07-19T13:37:37.998Z,2.40
2018-07-19T13:40:07.505Z,2.20
2018-07-19T13:42:36.926Z,1.92
2018-07-19T13:45:06.330Z,2.12
2018-07-19T13:47:35.743Z,2.50
2018-07-19T13:50:05.603Z,2.40
2018-07-19T13:52:52.077Z,2.22
2018-07-19T13:55:21.515Z,2.35
2018-07-19T13:57:50.959Z,2.40
2018-07-19T14:00:20.373Z,2.20
2018-07-19T14:02:49.848Z,2.20
2018-07-19T14:05:19.202Z,2.62
2018-07-19T14:07:48.623Z,2.37
2018-07-19T14:10:18.002Z,2.20
2018-07-19T14:12:47.438Z,2.00
2018-07-19T14:15:16.841Z,2.10
2018-07-19T14:17:46.276Z,2.20
2018-07-19T14:20:15.764Z,2.13
2018-07-19T14:22:45.172Z,2.20
2018-07-19T14:25:14.313Z,2.37
2018-07-19T14:27:43.755Z,1.92
2018-07-19T14:30:13.164Z,2.25
2018-07-19T14:32:42.332Z,2.52
2018-07-19T14:35:11.752Z,1.87
2018-07-19T14:37:41.151Z,2.10
2018-07-19T14:40:10.586Z,2.58
2018-07-19T14:42:40.011Z,2.10
2018-07-19T14:45:09.462Z,2.33
2018-07-19T14:47:38.881Z,2.10
2018-07-19T14:50:09.618Z,1.78
2018-07-19T14:52:39.081Z,2.42
2018-07-19T14:55:08.889Z,2.02
2018-07-19T14:57:38.371Z,2.10
2018-07-19T15:00:08.622Z,2.27
2018-07-19T15:02:38.211Z,2.30
2018-07-19T15:05:07.583Z,2.33
2018-07-19T15:07:36.935Z,2.08
2018-07-19T15:10:06.625Z,2.17
2018-07-19T15:12:35.977Z,2.33
2018-07-19T15:15:05.698Z,2.33
2018-07-19T15:17:34.788Z,1.90
2018-07-19T15:20:03.958Z,2.60
2018-07-19T15:22:33.320Z,2.37
2018-07-19T15:25:02.688Z,2.20
2018-07-19T15:27:31.797Z,2.33
2018-07-19T15:30:01.176Z,2.22
2018-07-19T15:32:30.279Z,2.72
2018-07-19T15:34:59.658Z,2.10
2018-07-19T15:37:29.013Z,2.10
2018-07-19T15:39:58.371Z,1.90
2018-07-19T15:42:27.477Z,2.47
2018-07-19T15:44:56.859Z,2.25
2018-07-19T15:47:26.182Z,2.20
2018-07-19T15:49:55.555Z,2.10
2018-07-19T15:52:24.912Z,2.60
2018-07-19T15:54:54.251Z,1.87
2018-07-19T15:57:23.602Z,2.10
2018-07-19T15:59:52.999Z,2.33
2018-07-19T16:02:22.372Z,2.50
2018-07-19T16:04:51.749Z,2.15
2018-07-19T16:07:21.106Z,2.22
2018-07-19T16:09:50.472Z,2.42
2018-07-19T16:12:19.844Z,1.85
2018-07-19T16:14:49.197Z,2.22
2018-07-19T16:17:18.872Z,2.20
2018-07-19T16:19:48.377Z,2.12
2018-07-19T16:22:17.734Z,2.10
2018-07-19T16:24:47.090Z,2.00
2018-07-19T16:27:16.430Z,2.20
2018-07-19T16:29:45.788Z,2.40
2018-07-19T16:32:15.137Z,2.25
2018-07-19T16:34:44.486Z,2.15
2018-07-19T16:37:13.858Z,2.30
2018-07-19T16:39:43.228Z,2.37
2018-07-19T16:42:12.320Z,2.52
2018-07-19T16:44:41.673Z,2.50
2018-07-19T16:47:11.192Z,2.42
2018-07-19T16:49:40.558Z,2.05
2018-07-19T16:52:09.883Z,2.50
2018-07-19T16:54:39.261Z,2.40
2018-07-19T16:57:08.849Z,2.92
2018-07-19T16:59:38.217Z,2.80
2018-07-19T17:27:54.958Z,2.65
2018-07-19T17:30:24.300Z,3.03
2018-07-19T17:32:53.462Z,2.80
2018-07-19T17:35:23.035Z,2.45
2018-07-19T17:37:52.375Z,2.50
2018-07-19T17:40:21.717Z,2.65
2018-07-19T17:42:51.051Z,2.70
2018-07-19T17:45:20.372Z,2.70
2018-07-19T17:47:49.722Z,2.65
2018-07-19T17:50:19.039Z,2.75
2018-07-19T17:52:48.360Z,2.52
2018-07-19T17:55:17.677Z,2.25
2018-07-19T17:57:46.987Z,2.60
2018-07-19T18:00:16.317Z,2.25
2018-07-19T18:02:45.640Z,2.52
2018-07-19T18:05:14.948Z,2.52
2018-07-19T18:07:44.279Z,2.40
2018-07-19T18:10:13.609Z,2.62
2018-07-19T18:12:42.691Z,2.27
2018-07-19T18:15:12.004Z,2.42
2018-07-19T18:17:41.107Z,2.33
2018-07-19T18:20:10.410Z,2.45
2018-07-19T18:22:39.721Z,2.60
2018-07-19T18:25:09.168Z,2.60
2018-07-19T18:27:38.483Z,2.50
2018-07-19T18:30:09.315Z,2.88
2018-07-19T18:32:38.863Z,2.70
2018-07-19T18:35:08.186Z,2.72
2018-07-19T18:37:37.512Z,2.40
2018-07-19T18:40:06.867Z,2.72
2018-07-19T18:42:36.189Z,2.52
2018-07-19T18:45:05.840Z,2.42
2018-07-19T18:47:35.160Z,2.77
2018-07-19T18:50:04.488Z,2.43
2018-07-19T18:52:33.811Z,2.70
2018-07-19T18:55:03.128Z,2.50
2018-07-19T18:57:32.453Z,3.15
2018-07-19T19:00:01.543Z,2.58
2018-07-19T19:02:30.896Z,2.30
2018-07-19T19:05:00.215Z,2.83
2018-07-19T19:07:29.541Z,2.75
2018-07-19T19:09:58.860Z,2.40
2018-07-19T19:12:28.191Z,2.60
2018-07-19T19:14:57.493Z,2.58
2018-07-19T19:17:26.820Z,2.90
2018-07-19T19:19:56.164Z,2.58
2018-07-19T19:22:25.499Z,2.53
2018-07-19T19:24:54.817Z,3.27
2018-07-19T19:27:24.156Z,3.20
2018-07-19T19:29:53.486Z,2.72
2018-07-19T19:32:22.860Z,2.90
2018-07-19T19:34:52.153Z,2.77
2018-07-19T19:37:21.243Z,2.62
2018-07-19T19:39:50.380Z,3.02
2018-07-19T19:42:19.703Z,2.45
2018-07-19T19:44:49.025Z,2.87
2018-07-19T19:47:18.340Z,3.10
2018-07-19T19:49:47.414Z,2.95
2018-07-19T19:52:16.725Z,3.00
2018-07-19T19:54:46.076Z,2.73
2018-07-19T19:57:15.383Z,2.77
2018-07-19T19:59:44.871Z,2.90
2018-07-19T20:02:14.235Z,2.62
2018-07-19T20:04:43.620Z,2.95
2018-07-19T20:07:13.375Z,3.00
2018-07-19T20:09:42.756Z,2.77
2018-07-19T20:12:12.171Z,2.95
2018-07-19T20:14:41.556Z,2.90
2018-07-19T20:17:10.945Z,3.27
2018-07-19T20:19:40.314Z,2.90
2018-07-19T20:22:09.683Z,2.63
2018-07-19T20:24:39.303Z,3.00
2018-07-19T20:27:08.678Z,3.10
2018-07-19T20:29:38.073Z,2.97
2018-07-19T20:32:07.440Z,2.97
2018-07-19T20:34:36.897Z,2.80
2018-07-19T20:37:06.216Z,3.00
2018-07-19T20:39:35.724Z,2.70
2018-07-19T20:42:05.080Z,2.90
2018-07-19T20:44:34.445Z,3.03
2018-07-19T20:47:03.808Z,3.23
2018-07-19T20:49:33.195Z,3.37
2018-07-19T20:52:02.388Z,2.83
2018-07-19T20:54:31.761Z,3.10
2018-07-19T20:57:01.128Z,2.83
2018-07-19T20:59:30.522Z,3.60
2018-07-19T21:01:59.888Z,2.80
2018-07-19T21:04:29.265Z,2.87
2018-07-19T21:06:58.644Z,3.00
2018-07-19T21:09:28.008Z,2.80
2018-07-19T21:11:57.387Z,2.77
2018-07-19T21:14:26.777Z,3.20
2018-07-19T21:16:56.169Z,3.63
2018-07-19T21:19:25.548Z,3.10
2018-07-19T21:21:54.916Z,3.17
2018-07-19T21:24:24.304Z,3.30
2018-07-19T21:26:53.676Z,3.03
2018-07-19T21:29:23.355Z,3.30
2018-07-19T21:31:52.727Z,3.23
2018-07-19T21:34:22.150Z,3.37
2018-07-19T21:36:51.536Z,3.47
2018-07-19T21:39:20.894Z,3.60
2018-07-19T21:41:50.273Z,3.63
2018-07-19T21:44:19.657Z,3.47
2018-07-19T21:46:49.046Z,3.40
2018-07-19T21:49:18.420Z,3.53
2018-07-19T21:51:47.799Z,4.00
2018-07-19T21:54:17.158Z,3.70
2018-07-19T21:56:46.549Z,3.70
2018-07-19T21:59:15.873Z,3.83
2018-07-19T22:01:46.959Z,4.28
2018-07-19T22:04:17.432Z,3.53
2018-07-19T22:06:46.829Z,3.83
2018-07-19T22:09:16.145Z,3.57
2018-07-19T22:11:45.464Z,3.40
2018-07-19T22:14:14.799Z,4.27
2018-07-19T22:16:44.109Z,3.63
2018-07-19T22:19:13.280Z,3.90
2018-07-19T22:21:42.610Z,3.30
2018-07-19T22:24:11.935Z,3.80
2018-07-19T22:26:41.268Z,3.73
2018-07-19T22:29:10.598Z,3.57
2018-07-19T22:31:39.914Z,4.00
2018-07-19T22:34:09.292Z,4.17
2018-07-19T22:36:38.601Z,3.60
2018-07-19T22:39:11.187Z,3.90
2018-07-19T22:41:40.725Z,4.30
2018-07-19T22:44:10.045Z,3.93
2018-07-19T22:46:39.370Z,3.70
2018-07-19T22:49:08.673Z,4.67
2018-07-19T22:51:37.984Z,4.00
2018-07-19T22:54:07.300Z,3.73
2018-07-19T22:56:36.379Z,4.00
2018-07-19T22:59:05.802Z,4.20
2018-07-19T23:01:35.193Z,3.90
2018-07-19T23:04:04.305Z,3.50
2018-07-19T23:06:33.687Z,3.70
2018-07-19T23:09:03.117Z,4.37
2018-07-19T23:11:32.488Z,3.90
2018-07-19T23:14:01.889Z,3.47
2018-07-19T23:16:31.251Z,3.23
2018-07-19T23:19:00.628Z,3.70
2018-07-19T23:21:29.995Z,3.77
2018-07-19T23:23:59.367Z,3.80
2018-07-19T23:26:28.745Z,3.53
2018-07-19T23:28:58.349Z,3.27
2018-07-19T23:31:27.732Z,3.47
2018-07-19T23:33:57.122Z,3.43
2018-07-19T23:36:30.744Z,3.40
2018-07-19T23:39:08.279Z,3.43
2018-07-19T23:41:46.328Z,3.83
2018-07-19T23:44:19.715Z,4.30
2018-07-19T23:46:52.857Z,3.97
2018-07-19T23:49:22.235Z,3.83
2018-07-19T23:51:51.600Z,4.07
2018-07-19T23:54:20.719Z,4.33
2018-07-19T23:56:50.140Z,4.47
2018-07-19T23:59:19.564Z,4.03
